sensor_id;sensor_type;location;lat;lon;timestamp;P1;durP1;ratioP1;P2;durP2;ratioP2
67841;SDS011;54642;59.126;37.876;2023-03-30T00:02:26;7.07;;;4.72;;
67841;SDS011;54642;59.126;37.876;2023-03-30T00:05:02;7.13;;;4.13;;
67841;SDS011;54642;59.126;37.876;2023-03-30T00:07:29;5.88;;;3.70;;
67841;SDS011;54642;59.126;37.876;2023-03-30T00:09:55;7.68;;;4.85;;
67841;SDS011;54642;59.126;37.876;2023-03-30T00:12:22;7.95;;;4.65;;
67841;SDS011;54642;59.126;37.876;2023-03-30T00:14:49;6.32;;;4.68;;
67841;SDS011;54642;59.126;37.876;2023-03-30T00:17:15;8.05;;;5.10;;
67841;SDS011;54642;59.126;37.876;2023-03-30T00:19:41;7.72;;;5.00;;
67841;SDS011;54642;59.126;37.876;2023-03-30T00:22:08;5.93;;;3.58;;
67841;SDS011;54642;59.126;37.876;2023-03-30T00:24:34;7.72;;;5.05;;
67841;SDS011;54642;59.126;37.876;2023-03-30T00:27:01;7.32;;;4.60;;
67841;SDS011;54642;59.126;37.876;2023-03-30T00:29:28;6.22;;;4.32;;
67841;SDS011;54642;59.126;37.876;2023-03-30T00:31:54;7.18;;;4.60;;
67841;SDS011;54642;59.126;37.876;2023-03-30T00:34:20;5.45;;;3.70;;
67841;SDS011;54642;59.126;37.876;2023-03-30T00:36:48;8.32;;;5.30;;
67841;SDS011;54642;59.126;37.876;2023-03-30T00:39:17;8.73;;;5.38;;
67841;SDS011;54642;59.126;37.876;2023-03-30T00:41:47;7.57;;;4.85;;
67841;SDS011;54642;59.126;37.876;2023-03-30T00:47:17;7.60;;;4.68;;
67841;SDS011;54642;59.126;37.876;2023-03-30T00:49:44;7.82;;;4.60;;
67841;SDS011;54642;59.126;37.876;2023-03-30T00:52:10;6.43;;;4.72;;
67841;SDS011;54642;59.126;37.876;2023-03-30T00:54:37;8.27;;;4.53;;
67841;SDS011;54642;59.126;37.876;2023-03-30T00:57:04;7.10;;;4.10;;
67841;SDS011;54642;59.126;37.876;2023-03-30T00:59:32;9.50;;;6.07;;
67841;SDS011;54642;59.126;37.876;2023-03-30T01:01:58;6.13;;;4.32;;
67841;SDS011;54642;59.126;37.876;2023-03-30T01:04:24;7.35;;;4.30;;
67841;SDS011;54642;59.126;37.876;2023-03-30T01:06:52;7.93;;;4.93;;
67841;SDS011;54642;59.126;37.876;2023-03-30T01:09:19;8.35;;;4.97;;
67841;SDS011;54642;59.126;37.876;2023-03-30T01:11:47;6.85;;;4.18;;
67841;SDS011;54642;59.126;37.876;2023-03-30T01:14:13;6.93;;;4.50;;
67841;SDS011;54642;59.126;37.876;2023-03-30T01:25:09;6.70;;;4.47;;
67841;SDS011;54642;59.126;37.876;2023-03-30T01:30:22;6.80;;;4.22;;
67841;SDS011;54642;59.126;37.876;2023-03-30T01:41:20;5.82;;;4.10;;
67841;SDS011;54642;59.126;37.876;2023-03-30T01:46:39;8.40;;;4.30;;
67841;SDS011;54642;59.126;37.876;2023-03-30T01:49:17;8.40;;;5.00;;
67841;SDS011;54642;59.126;37.876;2023-03-30T01:54:41;6.93;;;4.35;;
67841;SDS011;54642;59.126;37.876;2023-03-30T01:57:46;7.18;;;4.78;;
67841;SDS011;54642;59.126;37.876;2023-03-30T02:00:09;6.43;;;4.30;;
67841;SDS011;54642;59.126;37.876;2023-03-30T02:02:40;6.38;;;4.13;;
67841;SDS011;54642;59.126;37.876;2023-03-30T02:05:12;7.18;;;4.75;;
67841;SDS011;54642;59.126;37.876;2023-03-30T02:07:43;6.40;;;4.30;;
67841;SDS011;54642;59.126;37.876;2023-03-30T02:10:15;6.93;;;4.55;;
67841;SDS011;54642;59.126;37.876;2023-03-30T02:12:44;9.70;;;5.78;;
67841;SDS011;54642;59.126;37.876;2023-03-30T02:15:12;7.78;;;4.43;;
67841;SDS011;54642;59.126;37.876;2023-03-30T02:17:43;7.40;;;4.30;;
67841;SDS011;54642;59.126;37.876;2023-03-30T02:20:12;9.10;;;4.50;;
67841;SDS011;54642;59.126;37.876;2023-03-30T02:22:42;8.00;;;5.28;;
67841;SDS011;54642;59.126;37.876;2023-03-30T02:25:09;7.72;;;4.50;;
67841;SDS011;54642;59.126;37.876;2023-03-30T02:27:35;8.43;;;5.53;;
67841;SDS011;54642;59.126;37.876;2023-03-30T02:30:03;8.05;;;4.53;;
67841;SDS011;54642;59.126;37.876;2023-03-30T02:32:39;8.13;;;4.90;;
67841;SDS011;54642;59.126;37.876;2023-03-30T02:54:28;9.10;;;5.05;;
67841;SDS011;54642;59.126;37.876;2023-03-30T03:04:08;8.95;;;5.10;;
67841;SDS011;54642;59.126;37.876;2023-03-30T03:06:46;8.85;;;4.80;;
67841;SDS011;54642;59.126;37.876;2023-03-30T03:09:18;8.85;;;5.10;;
67841;SDS011;54642;59.126;37.876;2023-03-30T03:11:45;7.70;;;4.65;;
67841;SDS011;54642;59.126;37.876;2023-03-30T03:14:11;10.02;;;5.47;;
67841;SDS011;54642;59.126;37.876;2023-03-30T03:16:37;9.00;;;5.82;;
67841;SDS011;54642;59.126;37.876;2023-03-30T03:19:14;8.35;;;5.10;;
67841;SDS011;54642;59.126;37.876;2023-03-30T03:21:41;8.65;;;5.40;;
67841;SDS011;54642;59.126;37.876;2023-03-30T03:24:07;9.00;;;5.35;;
67841;SDS011;54642;59.126;37.876;2023-03-30T03:26:52;8.55;;;6.03;;
67841;SDS011;54642;59.126;37.876;2023-03-30T03:29:19;8.95;;;5.13;;
67841;SDS011;54642;59.126;37.876;2023-03-30T03:31:45;7.30;;;4.45;;
67841;SDS011;54642;59.126;37.876;2023-03-30T03:34:12;8.57;;;5.20;;
67841;SDS011;54642;59.126;37.876;2023-03-30T03:36:53;7.88;;;5.00;;
67841;SDS011;54642;59.126;37.876;2023-03-30T03:39:22;8.60;;;5.00;;
67841;SDS011;54642;59.126;37.876;2023-03-30T03:41:50;8.25;;;4.90;;
67841;SDS011;54642;59.126;37.876;2023-03-30T03:44:16;7.53;;;4.28;;
67841;SDS011;54642;59.126;37.876;2023-03-30T03:46:42;9.90;;;5.13;;
67841;SDS011;54642;59.126;37.876;2023-03-30T03:49:08;6.72;;;3.85;;
67841;SDS011;54642;59.126;37.876;2023-03-30T03:51:34;10.15;;;5.75;;
67841;SDS011;54642;59.126;37.876;2023-03-30T03:54:01;12.27;;;4.93;;
67841;SDS011;54642;59.126;37.876;2023-03-30T03:56:27;9.23;;;5.32;;
67841;SDS011;54642;59.126;37.876;2023-03-30T03:58:54;8.63;;;4.82;;
67841;SDS011;54642;59.126;37.876;2023-03-30T04:01:20;7.22;;;4.75;;
67841;SDS011;54642;59.126;37.876;2023-03-30T04:03:46;9.05;;;5.35;;
67841;SDS011;54642;59.126;37.876;2023-03-30T04:06:12;14.05;;;4.72;;
67841;SDS011;54642;59.126;37.876;2023-03-30T04:08:38;9.70;;;5.03;;
67841;SDS011;54642;59.126;37.876;2023-03-30T04:11:16;9.85;;;4.65;;
67841;SDS011;54642;59.126;37.876;2023-03-30T04:14:02;7.57;;;4.60;;
67841;SDS011;54642;59.126;37.876;2023-03-30T04:17:01;13.68;;;6.05;;
67841;SDS011;54642;59.126;37.876;2023-03-30T04:19:40;9.93;;;4.97;;
67841;SDS011;54642;59.126;37.876;2023-03-30T04:22:26;9.63;;;5.20;;
67841;SDS011;54642;59.126;37.876;2023-03-30T04:25:15;10.60;;;4.68;;
67841;SDS011;54642;59.126;37.876;2023-03-30T04:28:07;9.45;;;4.70;;
67841;SDS011;54642;59.126;37.876;2023-03-30T04:31:03;8.95;;;5.40;;
67841;SDS011;54642;59.126;37.876;2023-03-30T04:33:47;7.50;;;4.63;;
67841;SDS011;54642;59.126;37.876;2023-03-30T04:36:55;9.07;;;5.68;;
67841;SDS011;54642;59.126;37.876;2023-03-30T04:39:31;8.32;;;5.57;;
67841;SDS011;54642;59.126;37.876;2023-03-30T04:42:13;8.82;;;6.05;;
67841;SDS011;54642;59.126;37.876;2023-03-30T04:45:01;10.82;;;5.60;;
67841;SDS011;54642;59.126;37.876;2023-03-30T04:47:45;8.15;;;5.20;;
67841;SDS011;54642;59.126;37.876;2023-03-30T04:50:50;8.82;;;4.57;;
67841;SDS011;54642;59.126;37.876;2023-03-30T04:53:45;8.13;;;5.45;;
67841;SDS011;54642;59.126;37.876;2023-03-30T04:59:02;10.05;;;4.80;;
67841;SDS011;54642;59.126;37.876;2023-03-30T05:01:47;8.00;;;4.80;;
67841;SDS011;54642;59.126;37.876;2023-03-30T05:04:25;7.03;;;4.78;;
67841;SDS011;54642;59.126;37.876;2023-03-30T05:06:54;8.98;;;5.55;;
67841;SDS011;54642;59.126;37.876;2023-03-30T05:09:27;7.40;;;4.90;;
67841;SDS011;54642;59.126;37.876;2023-03-30T05:12:11;7.80;;;5.30;;
67841;SDS011;54642;59.126;37.876;2023-03-30T05:15:11;9.77;;;5.38;;
67841;SDS011;54642;59.126;37.876;2023-03-30T05:17:59;7.95;;;5.10;;
67841;SDS011;54642;59.126;37.876;2023-03-30T05:20:25;9.85;;;5.88;;
67841;SDS011;54642;59.126;37.876;2023-03-30T05:23:10;10.25;;;5.07;;
67841;SDS011;54642;59.126;37.876;2023-03-30T05:25:45;9.05;;;6.38;;
67841;SDS011;54642;59.126;37.876;2023-03-30T05:28:31;8.13;;;4.60;;
67841;SDS011;54642;59.126;37.876;2023-03-30T05:31:16;9.98;;;5.50;;
67841;SDS011;54642;59.126;37.876;2023-03-30T05:34:06;8.50;;;5.55;;
67841;SDS011;54642;59.126;37.876;2023-03-30T05:37:07;9.35;;;5.47;;
67841;SDS011;54642;59.126;37.876;2023-03-30T05:39:33;8.82;;;5.07;;
67841;SDS011;54642;59.126;37.876;2023-03-30T05:42:18;10.20;;;6.00;;
67841;SDS011;54642;59.126;37.876;2023-03-30T05:44:52;8.68;;;5.57;;
67841;SDS011;54642;59.126;37.876;2023-03-30T05:47:36;10.90;;;5.60;;
67841;SDS011;54642;59.126;37.876;2023-03-30T05:50:26;10.57;;;5.53;;
67841;SDS011;54642;59.126;37.876;2023-03-30T05:52:56;10.20;;;5.97;;
67841;SDS011;54642;59.126;37.876;2023-03-30T05:55:31;10.68;;;5.93;;
67841;SDS011;54642;59.126;37.876;2023-03-30T05:58:16;10.48;;;5.38;;
67841;SDS011;54642;59.126;37.876;2023-03-30T06:01:14;10.93;;;6.55;;
67841;SDS011;54642;59.126;37.876;2023-03-30T06:03:43;8.70;;;5.40;;
67841;SDS011;54642;59.126;37.876;2023-03-30T06:06:09;12.30;;;5.95;;
67841;SDS011;54642;59.126;37.876;2023-03-30T06:08:37;12.90;;;6.78;;
67841;SDS011;54642;59.126;37.876;2023-03-30T06:11:05;10.77;;;6.03;;
67841;SDS011;54642;59.126;37.876;2023-03-30T06:13:49;12.95;;;7.03;;
67841;SDS011;54642;59.126;37.876;2023-03-30T06:16:15;11.98;;;6.85;;
67841;SDS011;54642;59.126;37.876;2023-03-30T06:18:42;14.43;;;8.93;;
67841;SDS011;54642;59.126;37.876;2023-03-30T06:21:11;8.48;;;5.95;;
67841;SDS011;54642;59.126;37.876;2023-03-30T06:24:00;15.43;;;6.50;;
67841;SDS011;54642;59.126;37.876;2023-03-30T06:26:30;13.95;;;7.43;;
67841;SDS011;54642;59.126;37.876;2023-03-30T06:28:56;11.60;;;6.45;;
67841;SDS011;54642;59.126;37.876;2023-03-30T06:31:22;13.70;;;7.10;;
67841;SDS011;54642;59.126;37.876;2023-03-30T06:33:58;9.98;;;6.20;;
67841;SDS011;54642;59.126;37.876;2023-03-30T06:36:25;14.27;;;6.72;;
67841;SDS011;54642;59.126;37.876;2023-03-30T06:38:51;16.98;;;8.10;;
67841;SDS011;54642;59.126;37.876;2023-03-30T06:41:17;16.98;;;7.80;;
67841;SDS011;54642;59.126;37.876;2023-03-30T06:43:46;14.15;;;6.95;;
67841;SDS011;54642;59.126;37.876;2023-03-30T06:46:18;13.88;;;7.60;;
67841;SDS011;54642;59.126;37.876;2023-03-30T06:48:46;15.80;;;7.43;;
67841;SDS011;54642;59.126;37.876;2023-03-30T06:51:35;18.35;;;7.88;;
67841;SDS011;54642;59.126;37.876;2023-03-30T06:54:03;14.13;;;7.03;;
67841;SDS011;54642;59.126;37.876;2023-03-30T06:56:29;13.93;;;5.80;;
67841;SDS011;54642;59.126;37.876;2023-03-30T06:59:07;13.13;;;7.28;;
67841;SDS011;54642;59.126;37.876;2023-03-30T07:01:53;15.25;;;6.95;;
67841;SDS011;54642;59.126;37.876;2023-03-30T07:04:42;14.40;;;7.03;;
67841;SDS011;54642;59.126;37.876;2023-03-30T07:07:29;14.07;;;7.32;;
67841;SDS011;54642;59.126;37.876;2023-03-30T07:09:55;15.82;;;7.15;;
67841;SDS011;54642;59.126;37.876;2023-03-30T07:12:22;21.90;;;10.38;;
67841;SDS011;54642;59.126;37.876;2023-03-30T07:14:48;16.60;;;10.07;;
67841;SDS011;54642;59.126;37.876;2023-03-30T07:17:14;21.15;;;10.88;;
67841;SDS011;54642;59.126;37.876;2023-03-30T07:19:40;18.52;;;10.57;;
67841;SDS011;54642;59.126;37.876;2023-03-30T07:22:06;16.40;;;8.82;;
67841;SDS011;54642;59.126;37.876;2023-03-30T07:24:35;16.25;;;8.52;;
67841;SDS011;54642;59.126;37.876;2023-03-30T07:27:00;12.10;;;6.78;;
67841;SDS011;54642;59.126;37.876;2023-03-30T07:29:26;13.35;;;7.13;;
67841;SDS011;54642;59.126;37.876;2023-03-30T07:31:54;11.15;;;6.88;;
67841;SDS011;54642;59.126;37.876;2023-03-30T07:34:21;9.55;;;6.13;;
67841;SDS011;54642;59.126;37.876;2023-03-30T07:36:52;10.45;;;6.35;;
67841;SDS011;54642;59.126;37.876;2023-03-30T07:39:19;18.55;;;11.15;;
67841;SDS011;54642;59.126;37.876;2023-03-30T07:41:47;22.17;;;10.02;;
67841;SDS011;54642;59.126;37.876;2023-03-30T07:44:13;20.88;;;9.52;;
67841;SDS011;54642;59.126;37.876;2023-03-30T07:46:39;8.50;;;5.70;;
67841;SDS011;54642;59.126;37.876;2023-03-30T07:49:10;10.45;;;6.53;;
67841;SDS011;54642;59.126;37.876;2023-03-30T07:51:38;15.63;;;6.63;;
67841;SDS011;54642;59.126;37.876;2023-03-30T07:54:33;9.55;;;3.97;;
67841;SDS011;54642;59.126;37.876;2023-03-30T07:57:06;14.88;;;6.63;;
67841;SDS011;54642;59.126;37.876;2023-03-30T07:59:32;12.10;;;4.18;;
67841;SDS011;54642;59.126;37.876;2023-03-30T08:02:09;12.88;;;6.32;;
67841;SDS011;54642;59.126;37.876;2023-03-30T08:04:44;16.98;;;6.40;;
67841;SDS011;54642;59.126;37.876;2023-03-30T08:07:11;17.55;;;5.93;;
67841;SDS011;54642;59.126;37.876;2023-03-30T08:09:37;18.25;;;6.95;;
67841;SDS011;54642;59.126;37.876;2023-03-30T08:12:03;18.23;;;7.28;;
67841;SDS011;54642;59.126;37.876;2023-03-30T08:14:31;13.23;;;5.55;;
67841;SDS011;54642;59.126;37.876;2023-03-30T08:16:57;23.48;;;9.00;;
67841;SDS011;54642;59.126;37.876;2023-03-30T08:19:23;18.50;;;7.18;;
67841;SDS011;54642;59.126;37.876;2023-03-30T08:21:49;12.80;;;5.03;;
67841;SDS011;54642;59.126;37.876;2023-03-30T08:24:15;17.52;;;6.22;;
67841;SDS011;54642;59.126;37.876;2023-03-30T08:26:41;26.73;;;7.85;;
67841;SDS011;54642;59.126;37.876;2023-03-30T08:29:08;27.45;;;8.80;;
67841;SDS011;54642;59.126;37.876;2023-03-30T08:31:34;33.03;;;9.88;;
67841;SDS011;54642;59.126;37.876;2023-03-30T08:34:02;22.27;;;8.55;;
67841;SDS011;54642;59.126;37.876;2023-03-30T08:36:29;23.58;;;7.45;;
67841;SDS011;54642;59.126;37.876;2023-03-30T08:38:55;15.60;;;6.00;;
67841;SDS011;54642;59.126;37.876;2023-03-30T08:46:25;27.48;;;8.18;;
67841;SDS011;54642;59.126;37.876;2023-03-30T08:48:53;20.38;;;7.32;;
67841;SDS011;54642;59.126;37.876;2023-03-30T08:51:23;18.10;;;7.28;;
67841;SDS011;54642;59.126;37.876;2023-03-30T08:53:59;19.55;;;7.35;;
67841;SDS011;54642;59.126;37.876;2023-03-30T08:56:33;16.70;;;6.38;;
67841;SDS011;54642;59.126;37.876;2023-03-30T09:07:09;20.35;;;6.78;;
67841;SDS011;54642;59.126;37.876;2023-03-30T09:09:45;14.57;;;6.82;;
67841;SDS011;54642;59.126;37.876;2023-03-30T09:12:35;19.35;;;7.22;;
67841;SDS011;54642;59.126;37.876;2023-03-30T09:15:27;36.38;;;13.18;;
67841;SDS011;54642;59.126;37.876;2023-03-30T09:18:16;12.50;;;4.97;;
67841;SDS011;54642;59.126;37.876;2023-03-30T09:20:47;11.68;;;5.18;;
67841;SDS011;54642;59.126;37.876;2023-03-30T09:23:16;17.42;;;6.75;;
67841;SDS011;54642;59.126;37.876;2023-03-30T09:28:18;16.65;;;6.25;;
67841;SDS011;54642;59.126;37.876;2023-03-30T09:33:26;23.23;;;6.53;;
67841;SDS011;54642;59.126;37.876;2023-03-30T09:36:09;14.48;;;6.47;;
67841;SDS011;54642;59.126;37.876;2023-03-30T09:38:40;28.23;;;9.02;;
67841;SDS011;54642;59.126;37.876;2023-03-30T09:41:15;27.73;;;10.60;;
67841;SDS011;54642;59.126;37.876;2023-03-30T09:44:03;23.77;;;9.82;;
67841;SDS011;54642;59.126;37.876;2023-03-30T09:46:43;19.52;;;9.05;;
67841;SDS011;54642;59.126;37.876;2023-03-30T09:49:11;20.38;;;9.77;;
67841;SDS011;54642;59.126;37.876;2023-03-30T09:52:14;27.63;;;9.20;;
67841;SDS011;54642;59.126;37.876;2023-03-30T09:54:36;27.83;;;9.52;;
67841;SDS011;54642;59.126;37.876;2023-03-30T09:57:03;47.78;;;15.73;;
67841;SDS011;54642;59.126;37.876;2023-03-30T09:59:38;20.90;;;8.52;;
67841;SDS011;54642;59.126;37.876;2023-03-30T10:07:21;49.88;;;18.30;;
67841;SDS011;54642;59.126;37.876;2023-03-30T10:09:56;39.70;;;13.90;;
67841;SDS011;54642;59.126;37.876;2023-03-30T10:12:25;61.65;;;25.65;;
67841;SDS011;54642;59.126;37.876;2023-03-30T10:15:13;60.20;;;28.00;;
67841;SDS011;54642;59.126;37.876;2023-03-30T10:17:41;28.65;;;13.90;;
67841;SDS011;54642;59.126;37.876;2023-03-30T10:20:26;51.42;;;23.65;;
67841;SDS011;54642;59.126;37.876;2023-03-30T10:22:56;24.90;;;12.73;;
67841;SDS011;54642;59.126;37.876;2023-03-30T10:25:26;17.40;;;10.13;;
67841;SDS011;54642;59.126;37.876;2023-03-30T10:27:55;25.25;;;10.55;;
67841;SDS011;54642;59.126;37.876;2023-03-30T10:30:25;33.85;;;14.93;;
67841;SDS011;54642;59.126;37.876;2023-03-30T10:32:53;68.07;;;27.83;;
67841;SDS011;54642;59.126;37.876;2023-03-30T10:35:26;99.97;;;41.10;;
67841;SDS011;54642;59.126;37.876;2023-03-30T10:37:58;117.97;;;43.38;;
67841;SDS011;54642;59.126;37.876;2023-03-30T10:40:30;110.45;;;42.72;;
67841;SDS011;54642;59.126;37.876;2023-03-30T10:42:59;186.25;;;67.28;;
67841;SDS011;54642;59.126;37.876;2023-03-30T10:45:27;200.65;;;71.43;;
67841;SDS011;54642;59.126;37.876;2023-03-30T11:05:14;214.60;;;93.60;;
67841;SDS011;54642;59.126;37.876;2023-03-30T11:13:15;71.97;;;29.17;;
67841;SDS011;54642;59.126;37.876;2023-03-30T11:18:42;55.75;;;24.67;;
67841;SDS011;54642;59.126;37.876;2023-03-30T11:24:21;30.85;;;13.48;;
67841;SDS011;54642;59.126;37.876;2023-03-30T11:26:52;31.10;;;15.00;;
67841;SDS011;54642;59.126;37.876;2023-03-30T11:29:35;57.85;;;27.98;;
67841;SDS011;54642;59.126;37.876;2023-03-30T11:37:41;57.13;;;28.05;;
67841;SDS011;54642;59.126;37.876;2023-03-30T11:40:16;150.70;;;63.03;;
67841;SDS011;54642;59.126;37.876;2023-03-30T11:42:43;173.90;;;71.90;;
67841;SDS011;54642;59.126;37.876;2023-03-30T11:48:03;264.17;;;118.53;;
67841;SDS011;54642;59.126;37.876;2023-03-30T11:53:34;185.65;;;84.13;;
67841;SDS011;54642;59.126;37.876;2023-03-30T11:56:38;191.27;;;74.03;;
67841;SDS011;54642;59.126;37.876;2023-03-30T12:10:36;82.53;;;29.33;;
67841;SDS011;54642;59.126;37.876;2023-03-30T12:13:10;113.03;;;36.70;;
67841;SDS011;54642;59.126;37.876;2023-03-30T12:15:47;106.10;;;37.88;;
67841;SDS011;54642;59.126;37.876;2023-03-30T12:18:40;79.80;;;23.92;;
67841;SDS011;54642;59.126;37.876;2023-03-30T12:21:34;75.18;;;27.35;;
67841;SDS011;54642;59.126;37.876;2023-03-30T12:26:38;80.40;;;23.27;;
67841;SDS011;54642;59.126;37.876;2023-03-30T12:29:09;50.92;;;15.50;;
67841;SDS011;54642;59.126;37.876;2023-03-30T12:34:22;79.22;;;26.77;;
67841;SDS011;54642;59.126;37.876;2023-03-30T12:36:55;60.00;;;19.35;;
67841;SDS011;54642;59.126;37.876;2023-03-30T12:39:30;98.75;;;30.20;;
67841;SDS011;54642;59.126;37.876;2023-03-30T12:42:02;66.50;;;21.20;;
67841;SDS011;54642;59.126;37.876;2023-03-30T12:44:37;27.92;;;8.50;;
67841;SDS011;54642;59.126;37.876;2023-03-30T12:50:37;19.75;;;7.60;;
67841;SDS011;54642;59.126;37.876;2023-03-30T12:53:37;16.48;;;5.95;;
67841;SDS011;54642;59.126;37.876;2023-03-30T13:04:34;38.45;;;22.40;;
67841;SDS011;54642;59.126;37.876;2023-03-30T13:07:07;30.83;;;15.32;;
67841;SDS011;54642;59.126;37.876;2023-03-30T13:09:51;24.92;;;13.68;;
67841;SDS011;54642;59.126;37.876;2023-03-30T13:12:23;33.45;;;17.48;;
67841;SDS011;54642;59.126;37.876;2023-03-30T13:25:45;34.33;;;12.40;;
67841;SDS011;54642;59.126;37.876;2023-03-30T13:31:39;45.67;;;15.88;;
67841;SDS011;54642;59.126;37.876;2023-03-30T13:36:59;40.70;;;12.77;;
67841;SDS011;54642;59.126;37.876;2023-03-30T13:43:01;64.68;;;22.50;;
67841;SDS011;54642;59.126;37.876;2023-03-30T13:45:54;13.55;;;7.90;;
67841;SDS011;54642;59.126;37.876;2023-03-30T13:48:42;22.48;;;10.48;;
67841;SDS011;54642;59.126;37.876;2023-03-30T13:51:19;29.70;;;15.05;;
67841;SDS011;54642;59.126;37.876;2023-03-30T13:54:05;26.23;;;12.63;;
67841;SDS011;54642;59.126;37.876;2023-03-30T13:56:38;42.55;;;19.75;;
67841;SDS011;54642;59.126;37.876;2023-03-30T13:59:18;17.15;;;8.65;;
67841;SDS011;54642;59.126;37.876;2023-03-30T14:01:49;21.77;;;9.35;;
67841;SDS011;54642;59.126;37.876;2023-03-30T14:04:18;37.65;;;14.95;;
67841;SDS011;54642;59.126;37.876;2023-03-30T14:06:45;69.28;;;19.98;;
67841;SDS011;54642;59.126;37.876;2023-03-30T14:09:26;82.15;;;20.52;;
67841;SDS011;54642;59.126;37.876;2023-03-30T14:11:54;71.72;;;22.33;;
67841;SDS011;54642;59.126;37.876;2023-03-30T14:14:25;81.50;;;28.52;;
67841;SDS011;54642;59.126;37.876;2023-03-30T14:16:52;111.47;;;35.03;;
67841;SDS011;54642;59.126;37.876;2023-03-30T14:21:52;127.28;;;42.75;;
67841;SDS011;54642;59.126;37.876;2023-03-30T14:24:26;41.72;;;20.67;;
67841;SDS011;54642;59.126;37.876;2023-03-30T14:27:01;28.05;;;10.15;;
67841;SDS011;54642;59.126;37.876;2023-03-30T14:29:32;59.42;;;26.55;;
67841;SDS011;54642;59.126;37.876;2023-03-30T14:31:59;28.17;;;12.43;;
67841;SDS011;54642;59.126;37.876;2023-03-30T14:34:31;19.33;;;9.70;;
67841;SDS011;54642;59.126;37.876;2023-03-30T14:36:59;33.42;;;17.75;;
67841;SDS011;54642;59.126;37.876;2023-03-30T14:39:31;22.33;;;11.52;;
67841;SDS011;54642;59.126;37.876;2023-03-30T14:42:07;29.15;;;15.88;;
67841;SDS011;54642;59.126;37.876;2023-03-30T14:44:40;28.13;;;12.23;;
67841;SDS011;54642;59.126;37.876;2023-03-30T14:47:06;20.15;;;10.57;;
67841;SDS011;54642;59.126;37.876;2023-03-30T14:49:32;17.15;;;9.70;;
67841;SDS011;54642;59.126;37.876;2023-03-30T14:52:00;23.50;;;13.38;;
67841;SDS011;54642;59.126;37.876;2023-03-30T14:57:01;23.88;;;10.40;;
67841;SDS011;54642;59.126;37.876;2023-03-30T14:59:31;24.98;;;12.80;;
67841;SDS011;54642;59.126;37.876;2023-03-30T15:02:00;39.50;;;18.48;;
67841;SDS011;54642;59.126;37.876;2023-03-30T15:04:31;57.35;;;22.95;;
67841;SDS011;54642;59.126;37.876;2023-03-30T15:07:00;143.85;;;46.15;;
67841;SDS011;54642;59.126;37.876;2023-03-30T15:14:25;198.35;;;54.05;;
67841;SDS011;54642;59.126;37.876;2023-03-30T15:16:57;167.25;;;48.05;;
67841;SDS011;54642;59.126;37.876;2023-03-30T15:19:33;169.38;;;48.00;;
67841;SDS011;54642;59.126;37.876;2023-03-30T15:22:12;158.95;;;48.05;;
67841;SDS011;54642;59.126;37.876;2023-03-30T15:24:44;143.63;;;49.22;;
67841;SDS011;54642;59.126;37.876;2023-03-30T15:27:10;130.07;;;45.00;;
67841;SDS011;54642;59.126;37.876;2023-03-30T15:29:40;44.42;;;17.63;;
67841;SDS011;54642;59.126;37.876;2023-03-30T15:32:30;24.70;;;12.45;;
67841;SDS011;54642;59.126;37.876;2023-03-30T15:35:05;77.50;;;32.35;;
67841;SDS011;54642;59.126;37.876;2023-03-30T15:40:53;27.05;;;13.15;;
67841;SDS011;54642;59.126;37.876;2023-03-30T15:43:23;48.42;;;19.95;;
67841;SDS011;54642;59.126;37.876;2023-03-30T15:48:22;24.40;;;10.93;;
67841;SDS011;54642;59.126;37.876;2023-03-30T15:51:02;24.88;;;11.45;;
67841;SDS011;54642;59.126;37.876;2023-03-30T15:53:59;29.92;;;12.38;;
67841;SDS011;54642;59.126;37.876;2023-03-30T15:56:36;19.85;;;8.40;;
67841;SDS011;54642;59.126;37.876;2023-03-30T15:59:03;82.85;;;30.80;;
67841;SDS011;54642;59.126;37.876;2023-03-30T16:01:50;32.58;;;13.45;;
67841;SDS011;54642;59.126;37.876;2023-03-30T16:04:19;146.45;;;55.63;;
67841;SDS011;54642;59.126;37.876;2023-03-30T16:06:47;57.58;;;24.88;;
67841;SDS011;54642;59.126;37.876;2023-03-30T16:09:13;24.52;;;11.43;;
67841;SDS011;54642;59.126;37.876;2023-03-30T16:11:40;38.28;;;16.33;;
67841;SDS011;54642;59.126;37.876;2023-03-30T16:14:09;42.00;;;16.67;;
67841;SDS011;54642;59.126;37.876;2023-03-30T16:16:38;39.72;;;15.10;;
67841;SDS011;54642;59.126;37.876;2023-03-30T16:19:14;72.85;;;25.13;;
67841;SDS011;54642;59.126;37.876;2023-03-30T16:24:09;59.13;;;23.10;;
67841;SDS011;54642;59.126;37.876;2023-03-30T16:29:00;30.52;;;14.90;;
67841;SDS011;54642;59.126;37.876;2023-03-30T16:33:52;16.35;;;8.43;;
67841;SDS011;54642;59.126;37.876;2023-03-30T16:36:20;12.80;;;6.70;;
67841;SDS011;54642;59.126;37.876;2023-03-30T16:38:48;17.23;;;8.20;;
67841;SDS011;54642;59.126;37.876;2023-03-30T16:43:44;20.88;;;10.68;;
67841;SDS011;54642;59.126;37.876;2023-03-30T16:48:38;52.40;;;19.70;;
67841;SDS011;54642;59.126;37.876;2023-03-30T16:51:04;57.10;;;22.98;;
67841;SDS011;54642;59.126;37.876;2023-03-30T16:53:32;75.68;;;31.80;;
67841;SDS011;54642;59.126;37.876;2023-03-30T16:55:58;43.88;;;18.50;;
67841;SDS011;54642;59.126;37.876;2023-03-30T16:58:24;37.28;;;15.90;;
67841;SDS011;54642;59.126;37.876;2023-03-30T17:03:18;45.08;;;22.30;;
67841;SDS011;54642;59.126;37.876;2023-03-30T17:05:45;30.98;;;15.85;;
67841;SDS011;54642;59.126;37.876;2023-03-30T17:08:20;29.23;;;12.93;;
67841;SDS011;54642;59.126;37.876;2023-03-30T17:10:51;56.50;;;24.85;;
67841;SDS011;54642;59.126;37.876;2023-03-30T17:13:19;42.72;;;18.08;;
67841;SDS011;54642;59.126;37.876;2023-03-30T17:15:45;83.15;;;32.25;;
67841;SDS011;54642;59.126;37.876;2023-03-30T17:20:39;61.08;;;23.52;;
67841;SDS011;54642;59.126;37.876;2023-03-30T17:23:08;61.58;;;24.23;;
67841;SDS011;54642;59.126;37.876;2023-03-30T17:25:35;124.30;;;56.15;;
67841;SDS011;54642;59.126;37.876;2023-03-30T17:28:04;40.33;;;15.45;;
67841;SDS011;54642;59.126;37.876;2023-03-30T17:30:34;56.85;;;20.13;;
67841;SDS011;54642;59.126;37.876;2023-03-30T17:33:02;73.90;;;28.60;;
67841;SDS011;54642;59.126;37.876;2023-03-30T17:35:28;52.70;;;17.50;;
67841;SDS011;54642;59.126;37.876;2023-03-30T17:40:21;130.27;;;43.72;;
67841;SDS011;54642;59.126;37.876;2023-03-30T17:42:51;115.55;;;45.45;;
67841;SDS011;54642;59.126;37.876;2023-03-30T17:45:19;92.70;;;33.00;;
67841;SDS011;54642;59.126;37.876;2023-03-30T17:47:47;114.63;;;34.90;;
67841;SDS011;54642;59.126;37.876;2023-03-30T17:50:21;77.53;;;24.80;;
67841;SDS011;54642;59.126;37.876;2023-03-30T17:52:58;99.28;;;33.22;;
67841;SDS011;54642;59.126;37.876;2023-03-30T17:55:26;73.95;;;24.95;;
67841;SDS011;54642;59.126;37.876;2023-03-30T17:57:54;81.30;;;21.25;;
67841;SDS011;54642;59.126;37.876;2023-03-30T18:00:30;75.15;;;19.65;;
67841;SDS011;54642;59.126;37.876;2023-03-30T18:02:59;70.53;;;24.55;;
67841;SDS011;54642;59.126;37.876;2023-03-30T18:05:26;109.03;;;39.65;;
67841;SDS011;54642;59.126;37.876;2023-03-30T18:07:55;92.38;;;30.83;;
67841;SDS011;54642;59.126;37.876;2023-03-30T18:10:25;102.57;;;31.23;;
67841;SDS011;54642;59.126;37.876;2023-03-30T18:12:51;78.85;;;26.83;;
67841;SDS011;54642;59.126;37.876;2023-03-30T18:15:22;106.65;;;35.60;;
67841;SDS011;54642;59.126;37.876;2023-03-30T18:17:52;91.18;;;28.92;;